Azure — ZCEE2 — position and weather

sailwx.info

Track history (hours):
 
Tides and Currents Weather Stations Pressure Air Temp Water Temp Dewpoint Dewpoint Depression Visibility Wind Speed Wind Dir Waves Ship Positions

Azure

Last reported at 2016-May-24 02:00 UTC. Time now 2016-May-24 21:34 UTC.
Position N 61°36' E 004°18'.

Length 289 m; draft 8.6 m.

Type: Passenger vessel. MMSI: 310610000.

Wind from 010 at 19 knots

Waves 1.0 meters (3 feet), 3 second period

Barometer 1021.1 mb
Air temperature 7.5 ° C
Visibility: greater than 10.8 NM
Dewpoint 6.4 ° C
Water temperature 9.0 ° C

Date/timePositionNaut miles runAvg speedWind from/ knotsBaromVisibWave heightAir tempDewpointWater temp
2016-May-24 02:00N 61°36' E 004°18'6015.0 010 / 191021.110.8 1.0 7.5 6.4 9.0
2016-May-23 22:00N 60°36' E 004°18'7216.3 350 / 301018.3 2.0 8.5 3.910.0
2016-May-23 17:34N 59°26' E 004°52'1615.9
2016-May-23 16:33N 59°11' E 005°03'1616.1
2016-May-23 15:33N 59°05' E 005°32'9 8.3
2016-May-23 14:31N 58°58' E 005°44'0 0.0
2016-May-23 13:31N 58°58' E 005°44'0 0.0
2016-May-23 12:31N 58°58' E 005°44'0 0.0
2016-May-23 11:31N 58°58' E 005°44'0 0.0
2016-May-23 10:31N 58°58' E 005°44'0 0.0
2016-May-23 09:31N 58°58' E 005°44'0 0.0
2016-May-23 08:31N 58°58' E 005°44'0 0.0
2016-May-23 07:31N 58°58' E 005°44'0 0.2
2016-May-23 06:33N 58°59' E 005°44'6 5.6
2016-May-23 05:33N 58°57' E 005°33'1616.2
2016-May-23 04:33N 58°43' E 005°21'1818.1
2016-May-23 03:33N 58°25' E 005°12'19618.6
2016-May-22 17:00N 55°12' E 004°06'21016.6 310 / 101007.1 2.2 14.010.211.0
2016-May-22 04:19N 51°49' E 002°37'1519.4
2016-May-22 03:34N 51°36' E 002°24'1818.4
2016-May-22 02:33N 51°21' E 002°07'1818.4
2016-May-22 01:34N 51°07' E 001°49'2020.1
2016-May-22 00:33N 50°52' E 001°27'3918.0
2016-May-21 22:24N 50°28' E 000°39'1619.5
2016-May-21 21:33N 50°24' E 000°14'1918.7
2016-May-21 20:33N 50°25' W 000°15'1919.0
2016-May-21 19:33N 50°34' W 000°42'1515.1
2016-May-21 18:33N 50°43' W 001°01'1413.8
2016-May-21 17:33N 50°50' W 001°20'4 4.1
2016-May-21 16:33N 50°53' W 001°24'0 0.0
2016-May-21 15:33N 50°53' W 001°24'0 0.0
2016-May-21 14:33N 50°53' W 001°24'0 0.0
2016-May-21 13:33N 50°53' W 001°24'0 0.0
2016-May-21 12:33N 50°53' W 001°24'0 0.0
2016-May-21 11:33N 50°53' W 001°24'0 0.0
2016-May-21 10:33N 50°53' W 001°24'0 0.0
2016-May-21 09:33N 50°53' W 001°24'0 0.0
2016-May-21 08:33N 50°53' W 001°24'0 0.0
2016-May-21 07:30N 50°53' W 001°24'0 0.0
2016-May-21 06:33N 50°53' W 001°24'0 0.1
2016-May-21 05:33N 50°53' W 001°24'7 6.7
2016-May-21 04:33N 50°48' W 001°18'1212.3
2016-May-21 03:33N 50°43' W 001°00'1010.2
2016-May-21 02:33N 50°33' W 000°59'1412.1
2016-May-21 01:24N 50°27' W 001°19'1112.9
2016-May-21 00:32N 50°24' W 001°36'2612.2
2016-May-20 22:23N 50°13' W 002°14'2712.1
2016-May-20 20:10N 49°54' W 002°43'1016.4
2016-May-20 19:33N 49°49' W 002°57'1616.3
2016-May-20 18:33N 49°40' W 003°17'4116.4
2016-May-20 16:04N 49°14' W 004°06'1516.6
2016-May-20 15:10N 49°05' W 004°23'635.8
2016-May-20 15:00N 49°00' W 004°30'4 9.1 200 / 211015.9 5.4 0.515.015.012.0
2016-May-20 14:33N 48°58' W 004°36'1616.4
2016-May-20 13:33N 48°48' W 004°55'1615.5
2016-May-20 12:33N 48°39' W 005°14'1615.3
2016-May-20 11:31N 48°26' W 005°28'7015.6
2016-May-20 07:00N 47°24' W 006°18'6817.1 230 / 101019.2 5.4 0.517.013.513.0
2016-May-20 03:00N 46°24' W 007°06'17414.5 260 / 171019.9 5.4 0.515.013.214.0
2016-May-19 15:00N 43°54' W 009°12'11614.5 260 / 151023.6 2.2 0.518.014.615.0
2016-May-19 07:00N 42°00' W 009°42'7214.4 320 / 131023.6 2.2 1.015.014.115.0
2016-May-19 02:00N 40°48' W 009°42'6020.0 340 / 201021.810.8 1.015.013.216.0
2016-May-18 23:00N 39°48' W 009°42'2911.9 350 / 251022.210.8 1.515.012.318.0
2016-May-18 20:33N 39°19' W 009°46'1615.9
2016-May-18 19:34N 39°03' W 009°43'1716.5
2016-May-18 18:33N 38°47' W 009°44'1111.2
2016-May-18 17:33N 38°37' W 009°36'1413.6
2016-May-18 16:33N 38°40' W 009°19'10 9.5
2016-May-18 15:33N 38°43' W 009°08'0 0.0
2016-May-18 14:32N 38°43' W 009°08'0 0.0
2016-May-18 13:33N 38°43' W 009°08'0 0.0
2016-May-18 12:31N 38°43' W 009°08'0 0.0
2016-May-18 11:33N 38°43' W 009°08'0 0.0
2016-May-18 10:33N 38°43' W 009°08'0 0.0
2016-May-18 09:31N 38°43' W 009°08'0 0.0
2016-May-18 08:33N 38°43' W 009°08'0 0.0
2016-May-18 07:32N 38°43' W 009°08'0 0.1
2016-May-18 06:33N 38°43' W 009°08'1110.6
2016-May-18 05:33N 38°39' W 009°20'1716.7
2016-May-18 04:34N 38°26' W 009°34'1717.3
2016-May-18 03:33N 38°11' W 009°43'1729.4
2016-May-18 03:00N 37°54' W 009°42'3 5.8 330 / 341015.710.8 1.515.011.317.0
2016-May-18 02:33N 37°54' W 009°45'1716.9
2016-May-18 01:34N 37°39' W 009°54'1717.4
2016-May-18 00:33N 37°22' W 010°01'2118.3
2016-May-17 23:26N 37°03' W 010°09'1533.8
2016-May-17 23:00N 36°48' W 010°12'10016.7 350 / 301017.410.8 1.516.012.418.0
2016-May-17 17:00N 35°12' W 010°48'16516.5 350 / 301016.110.8 3.016.013.318.0
2016-May-17 07:00N 32°36' W 011°54'9415.6 010 / 301016.0 5.4 3.017.013.519.0
2016-May-17 01:00N 31°06' W 012°24'4514.9 360 / 351015.810.8 18.014.619.0
2016-May-16 22:00N 30°24' W 012°42'7716.8 360 / 331016.410.8 18.014.619.0
2016-May-16 17:24N 29°11' W 013°12'60 4.2
2016-May-16 03:00N 28°42' W 014°12'16 6.6 010 / 241018.410.8 19.011.819.0
2016-May-16 00:33N 28°35' W 014°29'8 8.5
2016-May-15 23:33N 28°29' W 014°36'813.6
2016-May-15 23:00N 28°24' W 014°42'1 3.2 010 / 271019.210.8 19.011.820.0
2016-May-15 22:33N 28°24' W 014°44'8 8.4
2016-May-15 21:33N 28°17' W 014°49'9 9.0
2016-May-15 20:33N 28°09' W 014°53'8 8.4
2016-May-15 19:33N 28°03' W 014°60'10 9.6
2016-May-15 18:33N 28°05' W 015°10'9 9.2
2016-May-15 17:33N 28°07' W 015°20'5 4.2
2016-May-15 16:24N 28°08' W 015°25'0 0.0
2016-May-15 15:27N 28°08' W 015°25'0 0.0
2016-May-15 14:27N 28°08' W 015°25'0 0.0
2016-May-15 13:27N 28°08' W 015°25'0 0.0
2016-May-15 12:30N 28°08' W 015°25'0 0.0
2016-May-15 11:30N 28°08' W 015°25'0 0.0
2016-May-15 10:12N 28°08' W 015°25'0 0.0
2016-May-15 09:33N 28°08' W 015°25'0 0.0
2016-May-15 08:30N 28°08' W 015°25'0 0.0
2016-May-15 07:21N 28°08' W 015°25'1 1.5
2016-May-15 06:33N 28°07' W 015°25'5 5.4
2016-May-15 05:34N 28°10' W 015°20'9 8.5
2016-May-15 04:33N 28°18' W 015°18'1010.3
2016-May-15 03:33N 28°27' W 015°24'1110.9
2016-May-15 02:33N 28°33' W 015°34'9 8.7
2016-May-15 01:34N 28°32' W 015°44'1110.6
2016-May-15 00:33N 28°23' W 015°51'10 9.5
2016-May-14 23:32N 28°17' W 015°60'1010.4
2016-May-14 22:33N 28°24' W 016°08'7 7.2
2016-May-14 21:33N 28°28' W 016°14'0 0.0
2016-May-14 20:22N 28°28' W 016°14'0 0.0
2016-May-14 19:25N 28°28' W 016°14'0 0.0
2016-May-14 18:28N 28°28' W 016°14'0 0.0
2016-May-14 17:31N 28°28' W 016°14'0 0.0
2016-May-14 16:31N 28°28' W 016°14'0 0.0
2016-May-14 15:31N 28°28' W 016°14'0 0.0
2016-May-14 14:28N 28°28' W 016°14'0 0.0
2016-May-14 13:31N 28°28' W 016°14'0 0.0
2016-May-14 12:31N 28°28' W 016°14'0 0.0
2016-May-14 11:31N 28°28' W 016°14'0 0.0
2016-May-14 10:22N 28°28' W 016°14'0 0.0
2016-May-14 09:25N 28°28' W 016°14'0 0.0
2016-May-14 07:22N 28°28' W 016°14'0 0.2
2016-May-14 06:33N 28°29' W 016°14'6 5.9
2016-May-14 05:33N 28°27' W 016°08'1110.5
2016-May-14 04:33N 28°27' W 015°56'1110.9
2016-May-14 03:33N 28°35' W 015°48'8 7.9
2016-May-14 02:33N 28°43' W 015°51'  
Track history (hours):
 
Tides and Currents Weather Stations Pressure Air Temp Water Temp Dewpoint Dewpoint Depression Visibility Wind Speed Wind Dir Waves Ship Positions

Azure

Last reported at 2016-May-24 02:00 UTC. Time now 2016-May-24 21:34 UTC.
Position N 61°36' E 004°18'.

Length 289 m; draft 8.6 m.

Type: Passenger vessel. MMSI: 310610000.

Wind from 010 at 19 knots

Waves 1.0 meters (3 feet), 3 second period

Barometer 1021.1 mb
Air temperature 7.5 ° C
Visibility: greater than 10.8 NM
Dewpoint 6.4 ° C
Water temperature 9.0 ° C

Date/timePositionNaut miles runAvg speedWind from/ knotsBaromVisibWave heightAir tempDewpointWater temp
2016-May-24 02:00N 61°36' E 004°18'6015.0 010 / 191021.110.8 1.0 7.5 6.4 9.0
2016-May-23 22:00N 60°36' E 004°18'7216.3 350 / 301018.3 2.0 8.5 3.910.0
2016-May-23 17:34N 59°26' E 004°52'1615.9
2016-May-23 16:33N 59°11' E 005°03'1616.1
2016-May-23 15:33N 59°05' E 005°32'9 8.3
2016-May-23 14:31N 58°58' E 005°44'0 0.0
2016-May-23 13:31N 58°58' E 005°44'0 0.0
2016-May-23 12:31N 58°58' E 005°44'0 0.0
2016-May-23 11:31N 58°58' E 005°44'0 0.0
2016-May-23 10:31N 58°58' E 005°44'0 0.0
2016-May-23 09:31N 58°58' E 005°44'0 0.0
2016-May-23 08:31N 58°58' E 005°44'0 0.0
2016-May-23 07:31N 58°58' E 005°44'0 0.2
2016-May-23 06:33N 58°59' E 005°44'6 5.6
2016-May-23 05:33N 58°57' E 005°33'1616.2
2016-May-23 04:33N 58°43' E 005°21'1818.1
2016-May-23 03:33N 58°25' E 005°12'19618.6
2016-May-22 17:00N 55°12' E 004°06'21016.6 310 / 101007.1 2.2 14.010.211.0
2016-May-22 04:19N 51°49' E 002°37'1519.4
2016-May-22 03:34N 51°36' E 002°24'1818.4
2016-May-22 02:33N 51°21' E 002°07'1818.4
2016-May-22 01:34N 51°07' E 001°49'2020.1
2016-May-22 00:33N 50°52' E 001°27'3918.0
2016-May-21 22:24N 50°28' E 000°39'1619.5
2016-May-21 21:33N 50°24' E 000°14'1918.7
2016-May-21 20:33N 50°25' W 000°15'1919.0
2016-May-21 19:33N 50°34' W 000°42'1515.1
2016-May-21 18:33N 50°43' W 001°01'1413.8
2016-May-21 17:33N 50°50' W 001°20'4 4.1
2016-May-21 16:33N 50°53' W 001°24'0 0.0
2016-May-21 15:33N 50°53' W 001°24'0 0.0
2016-May-21 14:33N 50°53' W 001°24'0 0.0
2016-May-21 13:33N 50°53' W 001°24'0 0.0
2016-May-21 12:33N 50°53' W 001°24'0 0.0
2016-May-21 11:33N 50°53' W 001°24'0 0.0
2016-May-21 10:33N 50°53' W 001°24'0 0.0
2016-May-21 09:33N 50°53' W 001°24'0 0.0
2016-May-21 08:33N 50°53' W 001°24'0 0.0
2016-May-21 07:30N 50°53' W 001°24'0 0.0
2016-May-21 06:33N 50°53' W 001°24'0 0.1
2016-May-21 05:33N 50°53' W 001°24'7 6.7
2016-May-21 04:33N 50°48' W 001°18'1212.3
2016-May-21 03:33N 50°43' W 001°00'1010.2
2016-May-21 02:33N 50°33' W 000°59'1412.1
2016-May-21 01:24N 50°27' W 001°19'1112.9
2016-May-21 00:32N 50°24' W 001°36'2612.2
2016-May-20 22:23N 50°13' W 002°14'2712.1
2016-May-20 20:10N 49°54' W 002°43'1016.4
2016-May-20 19:33N 49°49' W 002°57'1616.3
2016-May-20 18:33N 49°40' W 003°17'4116.4
2016-May-20 16:04N 49°14' W 004°06'1516.6
2016-May-20 15:10N 49°05' W 004°23'635.8
2016-May-20 15:00N 49°00' W 004°30'4 9.1 200 / 211015.9 5.4 0.515.015.012.0
2016-May-20 14:33N 48°58' W 004°36'1616.4
2016-May-20 13:33N 48°48' W 004°55'1615.5
2016-May-20 12:33N 48°39' W 005°14'1615.3
2016-May-20 11:31N 48°26' W 005°28'7015.6
2016-May-20 07:00N 47°24' W 006°18'6817.1 230 / 101019.2 5.4 0.517.013.513.0
2016-May-20 03:00N 46°24' W 007°06'17414.5 260 / 171019.9 5.4 0.515.013.214.0
2016-May-19 15:00N 43°54' W 009°12'11614.5 260 / 151023.6 2.2 0.518.014.615.0
2016-May-19 07:00N 42°00' W 009°42'7214.4 320 / 131023.6 2.2 1.015.014.115.0
2016-May-19 02:00N 40°48' W 009°42'6020.0 340 / 201021.810.8 1.015.013.216.0
2016-May-18 23:00N 39°48' W 009°42'2911.9 350 / 251022.210.8 1.515.012.318.0
2016-May-18 20:33N 39°19' W 009°46'1615.9
2016-May-18 19:34N 39°03' W 009°43'1716.5
2016-May-18 18:33N 38°47' W 009°44'1111.2
2016-May-18 17:33N 38°37' W 009°36'1413.6
2016-May-18 16:33N 38°40' W 009°19'10 9.5
2016-May-18 15:33N 38°43' W 009°08'0 0.0
2016-May-18 14:32N 38°43' W 009°08'0 0.0
2016-May-18 13:33N 38°43' W 009°08'0 0.0
2016-May-18 12:31N 38°43' W 009°08'0 0.0
2016-May-18 11:33N 38°43' W 009°08'0 0.0
2016-May-18 10:33N 38°43' W 009°08'0 0.0
2016-May-18 09:31N 38°43' W 009°08'0 0.0
2016-May-18 08:33N 38°43' W 009°08'0 0.0
2016-May-18 07:32N 38°43' W 009°08'0 0.1
2016-May-18 06:33N 38°43' W 009°08'1110.6
2016-May-18 05:33N 38°39' W 009°20'1716.7
2016-May-18 04:34N 38°26' W 009°34'1717.3
2016-May-18 03:33N 38°11' W 009°43'1729.4
2016-May-18 03:00N 37°54' W 009°42'3 5.8 330 / 341015.710.8 1.515.011.317.0
2016-May-18 02:33N 37°54' W 009°45'1716.9
2016-May-18 01:34N 37°39' W 009°54'1717.4
2016-May-18 00:33N 37°22' W 010°01'2118.3
2016-May-17 23:26N 37°03' W 010°09'1533.8
2016-May-17 23:00N 36°48' W 010°12'10016.7 350 / 301017.410.8 1.516.012.418.0
2016-May-17 17:00N 35°12' W 010°48'16516.5 350 / 301016.110.8 3.016.013.318.0
2016-May-17 07:00N 32°36' W 011°54'9415.6 010 / 301016.0 5.4 3.017.013.519.0
2016-May-17 01:00N 31°06' W 012°24'4514.9 360 / 351015.810.8 18.014.619.0
2016-May-16 22:00N 30°24' W 012°42'7716.8 360 / 331016.410.8 18.014.619.0
2016-May-16 17:24N 29°11' W 013°12'60 4.2
2016-May-16 03:00N 28°42' W 014°12'16 6.6 010 / 241018.410.8 19.011.819.0
2016-May-16 00:33N 28°35' W 014°29'8 8.5
2016-May-15 23:33N 28°29' W 014°36'813.6
2016-May-15 23:00N 28°24' W 014°42'1 3.2 010 / 271019.210.8 19.011.820.0
2016-May-15 22:33N 28°24' W 014°44'8 8.4
2016-May-15 21:33N 28°17' W 014°49'9 9.0
2016-May-15 20:33N 28°09' W 014°53'8 8.4
2016-May-15 19:33N 28°03' W 014°60'10 9.6
2016-May-15 18:33N 28°05' W 015°10'9 9.2
2016-May-15 17:33N 28°07' W 015°20'5 4.2
2016-May-15 16:24N 28°08' W 015°25'0 0.0
2016-May-15 15:27N 28°08' W 015°25'0 0.0
2016-May-15 14:27N 28°08' W 015°25'0 0.0
2016-May-15 13:27N 28°08' W 015°25'0 0.0
2016-May-15 12:30N 28°08' W 015°25'0 0.0
2016-May-15 11:30N 28°08' W 015°25'0 0.0
2016-May-15 10:12N 28°08' W 015°25'0 0.0
2016-May-15 09:33N 28°08' W 015°25'0 0.0
2016-May-15 08:30N 28°08' W 015°25'0 0.0
2016-May-15 07:21N 28°08' W 015°25'1 1.5
2016-May-15 06:33N 28°07' W 015°25'5 5.4
2016-May-15 05:34N 28°10' W 015°20'9 8.5
2016-May-15 04:33N 28°18' W 015°18'1010.3
2016-May-15 03:33N 28°27' W 015°24'1110.9
2016-May-15 02:33N 28°33' W 015°34'9 8.7
2016-May-15 01:34N 28°32' W 015°44'1110.6
2016-May-15 00:33N 28°23' W 015°51'10 9.5
2016-May-14 23:32N 28°17' W 015°60'1010.4
2016-May-14 22:33N 28°24' W 016°08'7 7.2
2016-May-14 21:33N 28°28' W 016°14'0 0.0
2016-May-14 20:22N 28°28' W 016°14'0 0.0
2016-May-14 19:25N 28°28' W 016°14'0 0.0
2016-May-14 18:28N 28°28' W 016°14'0 0.0
2016-May-14 17:31N 28°28' W 016°14'0 0.0
2016-May-14 16:31N 28°28' W 016°14'0 0.0
2016-May-14 15:31N 28°28' W 016°14'0 0.0
2016-May-14 14:28N 28°28' W 016°14'0 0.0
2016-May-14 13:31N 28°28' W 016°14'0 0.0
2016-May-14 12:31N 28°28' W 016°14'0 0.0
2016-May-14 11:31N 28°28' W 016°14'0 0.0
2016-May-14 10:22N 28°28' W 016°14'0 0.0
2016-May-14 09:25N 28°28' W 016°14'0 0.0
2016-May-14 07:22N 28°28' W 016°14'0 0.2
2016-May-14 06:33N 28°29' W 016°14'6 5.9
2016-May-14 05:33N 28°27' W 016°08'1110.5
2016-May-14 04:33N 28°27' W 015°56'1110.9
2016-May-14 03:33N 28°35' W 015°48'8 7.9
2016-May-14 02:33N 28°43' W 015°51'  

Dump ship's entire track history